Time;durP1;ratioP1;P1;durP2;ratioP2;P2;SDS_P1;SDS_P2;PMS_P1;PMS_P2;Temp;Humidity;BMP_temperature;BMP_pressure;BME280_temperature;BME280_humidity;BME280_pressure;Samples;Min_cycle;Max_cycle;Signal;HPM_P1;HPM_P2
2022/04/03 00:04:31;;;;;;;1.50;1.20;;;;;;;19.17;44.11;96447.16;10280030;28;20058;-54
2022/04/03 00:09:51;;;;;;;1.92;1.30;;;;;;;19.16;43.95;96442.09;10284597;28;20054;-56
2022/04/03 00:15:10;;;;;;;2.35;1.13;;;;;;;19.14;44.08;96447.81;10283387;28;20117;-57
2022/04/03 00:20:30;;;;;;;1.85;0.90;;;;;;;19.12;43.94;96450.06;10285665;28;20086;-56
2022/04/03 00:25:51;;;;;;;1.35;1.10;;;;;;;19.12;43.83;96460.84;10289305;28;20125;-55
2022/04/03 00:31:12;;;;;;;1.55;1.00;;;;;;;19.11;43.97;96458.47;10291791;28;20640;-56
2022/04/03 00:36:31;;;;;;;1.58;0.98;;;;;;;19.09;43.89;96456.13;10291811;28;20059;-56
2022/04/03 00:41:51;;;;;;;1.27;1.10;;;;;;;19.08;43.89;96462.63;10290900;28;20062;-55
2022/04/03 00:47:12;;;;;;;1.20;0.95;;;;;;;19.07;43.89;96471.06;10292000;28;20055;-55
2022/04/03 00:52:32;;;;;;;1.40;1.02;;;;;;;19.05;43.82;96468.69;10304718;28;20058;-56
2022/04/03 00:57:52;;;;;;;1.98;1.00;;;;;;;19.03;43.78;96470.91;10292430;28;20046;-56
2022/04/03 01:03:11;;;;;;;1.42;0.90;;;;;;;19.03;43.74;96478.22;10304165;28;20047;-57
2022/04/03 01:08:32;;;;;;;1.65;1.10;;;;;;;19.01;43.74;96475.06;10290455;28;20058;-56
2022/04/03 01:13:52;;;;;;;1.10;0.90;;;;;;;19.00;43.55;96482.38;10301477;28;20105;-57
2022/04/03 01:19:11;;;;;;;1.05;0.93;;;;;;;18.98;43.74;96481.94;10290015;28;20557;-56
2022/04/03 01:24:31;;;;;;;1.25;0.75;;;;;;;18.98;43.54;96491.94;10290984;28;20085;-55
2022/04/03 01:29:52;;;;;;;2.33;1.15;;;;;;;18.95;43.32;96490.66;10289257;28;20509;-57
2022/04/03 01:35:12;;;;;;;1.63;1.00;;;;;;;18.94;43.28;96495.28;10289335;28;20564;-56
2022/04/03 01:40:34;;;;;;;1.30;0.93;;;;;;;18.93;43.53;96491.00;10303883;28;20042;-54
2022/04/03 01:45:54;;;;;;;1.70;0.90;;;;;;;18.92;43.49;96510.22;10278670;28;20059;-54
2022/04/03 01:51:14;;;;;;;1.20;1.02;;;;;;;18.90;43.53;96498.97;10288411;28;20065;-56
2022/04/03 01:56:34;;;;;;;1.00;0.80;;;;;;;18.89;43.25;96505.47;10291302;28;20062;-56
2022/04/03 02:01:54;;;;;;;2.92;1.00;;;;;;;18.88;43.22;96499.28;10275330;28;20082;-56
2022/04/03 02:07:13;;;;;;;1.40;0.98;;;;;;;18.87;43.31;96508.50;10299785;28;20034;-56
2022/04/03 02:12:33;;;;;;;1.20;1.00;;;;;;;18.87;43.37;96507.72;10301067;28;20922;-54
2022/04/03 02:17:53;;;;;;;1.30;0.98;;;;;;;18.84;43.10;96513.78;10288772;28;20507;-53
2022/04/03 02:23:14;;;;;;;1.27;0.90;;;;;;;18.83;42.89;96517.56;10283859;28;20051;-54
2022/04/03 02:28:34;;;;;;;1.20;0.82;;;;;;;18.81;42.99;96522.50;10288977;28;20391;-56
2022/04/03 02:33:54;;;;;;;0.70;0.70;;;;;;;18.80;43.04;96515.50;10287319;28;20129;-57
2022/04/03 02:39:14;;;;;;;0.88;0.80;;;;;;;18.77;42.97;96517.72;10287974;28;20063;-55
2022/04/03 02:44:34;;;;;;;1.05;0.95;;;;;;;18.76;42.94;96524.25;10300762;28;20050;-56
2022/04/03 02:49:54;;;;;;;1.23;0.80;;;;;;;18.75;42.89;96522.66;10288991;28;20057;-55
2022/04/03 02:55:13;;;;;;;1.15;0.90;;;;;;;18.75;42.88;96521.88;10283478;28;20097;-55
2022/04/03 03:00:35;;;;;;;1.45;0.80;;;;;;;18.73;42.76;96524.88;10289993;28;20046;-53
2022/04/03 03:05:54;;;;;;;1.10;1.00;;;;;;;18.71;42.83;96529.81;10285248;28;20398;-56
2022/04/03 03:11:14;;;;;;;1.83;1.20;;;;;;;18.70;42.78;96536.34;10285563;28;20121;-55
2022/04/03 03:16:34;;;;;;;1.10;0.93;;;;;;;18.69;42.86;96534.75;10296524;28;20095;-56
2022/04/03 03:21:54;;;;;;;1.02;0.75;;;;;;;18.68;42.62;96533.19;10287121;28;20085;-56
2022/04/03 03:27:14;;;;;;;1.13;0.80;;;;;;;18.67;42.77;96530.81;10276875;28;20093;-54
2022/04/03 03:32:33;;;;;;;1.08;0.90;;;;;;;18.64;42.75;96529.56;10286770;28;20059;-53
2022/04/03 03:37:52;;;;;;;1.05;0.85;;;;;;;18.64;42.52;96545.75;10286124;28;20050;-55
2022/04/03 03:43:11;;;;;;;0.93;0.82;;;;;;;18.63;42.59;96546.84;10284254;28;20070;-56
2022/04/03 03:48:32;;;;;;;0.70;0.70;;;;;;;18.61;42.70;96549.06;10285499;28;20090;-54
2022/04/03 03:53:51;;;;;;;0.80;0.70;;;;;;;18.61;42.56;96559.88;10280940;28;20051;-54
2022/04/03 03:59:11;;;;;;;1.20;0.90;;;;;;;18.59;42.48;96562.09;10295107;28;20082;-54
2022/04/03 04:04:30;;;;;;;1.00;0.80;;;;;;;18.57;42.39;96562.41;10293676;28;20117;-54
2022/04/03 04:09:49;;;;;;;1.05;0.75;;;;;;;18.57;42.47;96585.91;10291272;28;20078;-53
2022/04/03 04:15:11;;;;;;;0.90;0.80;;;;;;;18.55;42.53;96580.03;10291861;28;20058;-55
2022/04/03 04:20:30;;;;;;;1.20;0.82;;;;;;;18.54;42.37;96595.44;10293054;28;20066;-56
2022/04/03 04:25:50;;;;;;;0.90;0.68;;;;;;;18.54;42.28;96608.13;10287544;28;20133;-57
2022/04/03 04:31:09;;;;;;;0.82;0.70;;;;;;;18.51;42.32;96606.09;10305237;28;20058;-54
2022/04/03 04:36:29;;;;;;;0.98;0.75;;;;;;;18.50;42.40;96609.88;10293348;28;20059;-56
2022/04/03 04:41:48;;;;;;;1.05;0.80;;;;;;;18.49;42.28;96619.88;10291643;28;20212;-56
2022/04/03 04:47:08;;;;;;;0.60;0.60;;;;;;;18.49;42.21;96621.81;10291368;28;20054;-56
2022/04/03 04:52:28;;;;;;;0.80;0.80;;;;;;;18.47;42.24;96624.03;10292326;28;20055;-55
2022/04/03 04:57:53;;;;;;;0.88;0.82;;;;;;;18.48;42.04;96633.69;10293772;28;20082;-56
2022/04/03 05:03:12;;;;;;;0.85;0.73;;;;;;;18.47;42.09;96634.81;10289442;28;20043;-54
2022/04/03 05:08:32;;;;;;;0.77;0.60;;;;;;;18.49;42.11;96648.78;10290772;28;20937;-56
2022/04/03 05:13:52;;;;;;;0.75;0.75;;;;;;;18.50;42.15;96650.34;10275249;28;20047;-56
2022/04/03 05:19:12;;;;;;;0.75;0.75;;;;;;;18.51;41.90;96660.03;10277046;28;20410;-54
2022/04/03 05:24:31;;;;;;;0.70;0.60;;;;;;;18.52;42.00;96658.91;10291479;28;20070;-56
2022/04/03 05:29:50;;;;;;;0.77;0.70;;;;;;;18.53;42.05;96663.22;10288193;28;20057;-55
2022/04/03 05:35:10;;;;;;;0.77;0.70;;;;;;;18.53;41.82;96668.59;10302845;28;20039;-56
2022/04/03 05:40:30;;;;;;;0.60;0.57;;;;;;;18.53;41.86;96676.69;10290165;28;20047;-55
2022/04/03 05:45:49;;;;;;;0.80;0.80;;;;;;;18.54;41.84;96686.34;10288439;28;20465;-55
2022/04/03 05:51:09;;;;;;;0.90;0.70;;;;;;;18.53;42.01;96696.38;10286862;28;20079;-56
2022/04/03 05:56:28;;;;;;;0.60;0.60;;;;;;;18.53;41.84;96700.97;10291466;28;20059;-54
2022/04/03 06:01:48;;;;;;;0.77;0.77;;;;;;;18.54;41.75;96705.25;10287936;28;20046;-54
2022/04/03 06:07:08;;;;;;;0.90;0.80;;;;;;;18.55;41.73;96702.22;10287860;28;20050;-54
2022/04/03 06:12:27;;;;;;;0.70;0.70;;;;;;;18.57;41.99;96704.63;10290539;28;20502;-56
2022/04/03 06:17:50;;;;;;;0.70;0.65;;;;;;;18.61;41.90;96720.97;10272975;28;20051;-56
2022/04/03 06:23:16;;;;;;;0.77;0.77;;;;;;;18.62;42.15;96715.25;10288735;28;20042;-56
2022/04/03 06:28:35;;;;;;;1.27;0.73;;;;;;;18.65;41.93;96730.78;10286768;28;20059;-57
2022/04/03 06:33:55;;;;;;;1.27;0.80;;;;;;;18.69;42.17;96736.34;10288073;28;20614;-56
2022/04/03 06:39:14;;;;;;;0.70;0.70;;;;;;;18.73;42.22;96746.16;10301079;28;20074;-57
2022/04/03 06:44:34;;;;;;;0.70;0.70;;;;;;;18.77;42.20;96746.31;10302458;28;20051;-57
2022/04/03 06:49:54;;;;;;;0.70;0.70;;;;;;;18.83;42.34;96749.69;10288196;28;20497;-56
2022/04/03 06:55:14;;;;;;;2.63;0.70;;;;;;;18.86;42.25;96751.75;10283750;28;20395;-56
2022/04/03 07:00:37;;;;;;;1.92;0.70;;;;;;;18.91;42.33;96757.75;10273764;28;20055;-57
2022/04/03 07:05:56;;;;;;;0.65;0.60;;;;;;;18.96;42.23;96764.91;10287457;28;20059;-57
2022/04/03 07:11:15;;;;;;;0.95;0.70;;;;;;;19.00;42.25;96771.25;10289722;28;20049;-57
2022/04/03 07:16:35;;;;;;;1.25;0.70;;;;;;;19.03;42.43;96776.00;10288232;28;20051;-57
2022/04/03 07:21:57;;;;;;;0.65;0.65;;;;;;;19.08;42.05;96783.94;10299721;28;20050;-54
2022/04/03 07:27:17;;;;;;;0.85;0.50;;;;;;;19.14;41.94;96785.34;10288246;28;20047;-56
2022/04/03 07:32:36;;;;;;;0.47;0.47;;;;;;;19.21;42.03;96802.97;10283719;28;20059;-57
2022/04/03 07:37:56;;;;;;;2.22;2.00;;;;;;;18.16;26.89;96797.56;10281076;28;21324;-57
2022/04/03 07:43:16;;;;;;;3.90;2.42;;;;;;;-146.19;100.00;65364.44;10286070;28;20051;-56
2022/04/03 07:48:35;;;;;;;2.65;2.38;;;;;;;16.52;24.05;96813.31;10295855;28;20046;-57
2022/04/03 07:53:55;;;;;;;5.30;2.78;;;;;;;16.35;23.66;96827.41;10284282;28;20457;-55
2022/04/03 07:59:15;;;;;;;2.85;2.50;;;;;;;-146.19;100.00;65364.44;10284789;28;20510;-55
2022/04/03 08:04:35;;;;;;;3.75;2.00;;;;;;;16.96;28.60;96832.53;10284729;28;20059;-56
2022/04/03 08:09:54;;;;;;;2.80;1.85;;;;;;;-146.19;100.00;65364.44;10283873;28;20067;-56
2022/04/03 08:15:15;;;;;;;2.88;1.88;;;;;;;-146.19;100.00;65364.44;10299422;28;20046;-56
2022/04/03 08:20:35;;;;;;;2.35;1.70;;;;;;;-146.19;100.00;65364.44;10289892;28;20047;-53
2022/04/03 08:25:55;;;;;;;2.40;1.60;;;;;;;-146.19;100.00;65364.44;10289152;28;20069;-54
2022/04/03 08:31:14;;;;;;;3.72;1.80;;;;;;;-146.19;100.00;65364.44;10279788;28;20490;-57
2022/04/03 08:36:35;;;;;;;2.13;1.60;;;;;;;-146.19;100.00;65364.44;10296339;28;20054;-53
2022/04/03 08:41:56;;;;;;;2.67;1.50;;;;;;;-146.19;100.00;65364.44;10282509;28;20059;-56
2022/04/03 08:47:17;;;;;;;1.80;1.42;;;;;;;-146.19;100.00;65364.44;10296821;28;20046;-57
2022/04/03 08:52:38;;;;;;;4.07;1.65;;;;;;;-146.19;100.00;65364.44;10291295;28;20063;-55
2022/04/03 08:57:58;;;;;;;2.30;1.60;;;;;;;-146.19;100.00;65364.44;10272973;28;20097;-57
2022/04/03 09:03:18;;;;;;;2.50;1.58;;;;;;;-146.19;100.00;65364.44;10300177;28;20039;-56
2022/04/03 09:08:38;;;;;;;1.80;1.20;;;;;;;-146.19;100.00;65364.44;10293326;28;20059;-56
2022/04/03 09:13:57;;;;;;;1.83;1.10;;;;;;;-146.19;100.00;65364.44;10302078;28;20046;-57
2022/04/03 09:19:32;;;;;;;2.72;1.20;;;;;;;-146.19;100.00;65364.44;10276288;28;20063;-56
2022/04/03 09:24:51;;;;;;;3.38;1.40;;;;;;;-146.19;100.00;65364.44;10293592;28;20569;-55
2022/04/03 09:30:11;;;;;;;3.90;1.33;;;;;;;-146.19;100.00;65364.44;10289061;28;20058;-55
2022/04/03 09:35:59;;;;;;;2.53;1.10;;;;;;;-146.19;100.00;65364.44;10281119;28;20051;-58
2022/04/03 09:41:18;;;;;;;4.10;1.10;;;;;;;16.96;28.60;96832.53;10285808;28;20077;-57
2022/04/03 09:46:38;;;;;;;1.50;1.25;;;;;;;19.77;36.33;96895.66;10284637;28;20051;-57
2022/04/03 09:51:57;;;;;;;2.38;1.40;;;;;;;19.85;36.32;96899.47;10286532;28;20051;-57
2022/04/03 09:57:21;;;;;;;2.42;1.05;;;;;;;19.90;36.63;96885.78;10308790;28;20129;-57
2022/04/03 10:02:57;;;;;;;3.30;1.10;;;;;;;19.96;36.82;96884.47;10305893;28;20668;-58
2022/04/03 10:08:17;;;;;;;1.35;1.02;;;;;;;20.01;36.69;96881.56;10289846;28;20449;-55
2022/04/03 10:13:38;;;;;;;2.85;1.08;;;;;;;20.04;36.84;96888.25;10296815;28;20054;-54
2022/04/03 10:18:58;;;;;;;1.50;1.10;;;;;;;20.06;36.96;96888.72;10290680;28;20055;-56
2022/04/03 10:24:25;;;;;;;3.10;1.00;;;;;;;20.10;36.94;96887.75;10301063;28;20490;-56
2022/04/03 10:29:47;;;;;;;1.30;1.00;;;;;;;20.15;37.13;96875.97;10258097;28;20074;-55
2022/04/03 10:35:09;;;;;;;25.27;5.43;;;;;;;20.20;37.21;96870.34;10299257;28;20043;-57
2022/04/03 10:40:34;;;;;;;122.63;31.63;;;;;;;20.19;31.25;96884.19;10291275;28;20051;-57
2022/04/03 10:45:54;;;;;;;87.70;21.92;;;;;;;19.82;29.27;96881.97;10301260;28;20046;-55
2022/04/03 10:51:31;;;;;;;95.40;26.13;;;;;;;19.91;33.41;96874.59;10266211;28;20054;-57
2022/04/03 10:56:50;;;;;;;124.30;34.13;;;;;;;20.02;34.39;96879.69;10287654;28;20106;-58
2022/04/03 11:02:14;;;;;;;131.65;34.70;;;;;;;20.09;35.57;96883.47;10300627;28;20561;-57
2022/04/03 11:07:33;;;;;;;48.67;13.57;;;;;;;20.05;28.34;96885.22;10286670;28;20050;-58
2022/04/03 11:12:56;;;;;;;15.30;5.15;;;;;;;19.50;21.83;96883.31;10301669;28;20054;-53
2022/04/03 11:18:27;;;;;;;24.33;5.90;;;;;;;19.37;25.80;96887.78;10293855;28;20464;-54
2022/04/03 11:23:51;;;;;;;132.43;34.58;;;;;;;19.61;30.72;96878.34;10268217;28;20065;-54
2022/04/03 11:29:10;;;;;;;14.82;5.75;;;;;;;19.39;20.86;96880.16;10270024;28;20054;-55
2022/04/03 11:34:31;;;;;;;21.15;5.82;;;;;;;19.29;25.29;96875.09;10287038;28;20046;-55
2022/04/03 11:39:53;;;;;;;12.60;4.88;;;;;;;19.51;28.54;96861.38;10276692;28;20165;-55
2022/04/03 11:45:12;;;;;;;17.30;5.72;;;;;;;19.68;29.57;96865.94;10299409;28;20486;-53
2022/04/03 11:50:32;;;;;;;96.32;25.90;;;;;;;19.81;30.27;96885.78;10285087;28;20047;-54
2022/04/03 11:55:51;;;;;;;106.15;51.78;;;;;;;19.81;30.21;96874.97;10298094;28;20121;-55
2022/04/03 12:01:12;;;;;;;78.75;39.47;;;;;;;19.89;32.78;96878.75;10294225;28;20101;-55
2022/04/03 12:06:32;;;;;;;75.60;38.45;;;;;;;19.99;33.63;96872.19;10285161;28;20391;-56
2022/04/03 12:11:53;;;;;;;73.78;37.33;;;;;;;20.06;33.94;96864.38;10301007;28;20051;-53
2022/04/03 12:17:15;;;;;;;67.32;31.13;;;;;;;20.12;34.73;96857.66;10282195;28;20054;-55
2022/04/03 12:22:35;;;;;;;63.92;30.27;;;;;;;20.18;35.39;96861.78;10285114;28;20054;-53
2022/04/03 12:27:54;;;;;;;55.47;27.35;;;;;;;20.23;36.30;96866.19;10276444;28;20067;-53
2022/04/03 12:33:14;;;;;;;55.90;26.73;;;;;;;20.26;36.76;96862.84;10290266;28;20046;-53
2022/04/03 12:38:34;;;;;;;52.72;24.85;;;;;;;20.29;37.19;96863.00;10287854;28;20193;-54
2022/04/03 12:43:56;;;;;;;47.13;23.55;;;;;;;20.32;37.79;96865.03;10287884;28;20051;-57
2022/04/03 12:49:17;;;;;;;42.20;20.83;;;;;;;20.37;37.91;96860.56;10292840;28;20516;-51
2022/04/03 12:54:41;;;;;;;42.20;19.88;;;;;;;20.40;38.02;96846.38;10299865;28;20802;-61
2022/04/03 13:00:05;;;;;;;35.33;16.95;;;;;;;20.41;38.00;96853.38;10298808;28;20093;-61
2022/04/03 13:05:31;;;;;;;26.35;12.13;;;;;;;20.41;37.83;96851.47;10287363;28;20043;-63
2022/04/03 13:10:57;;;;;;;29.05;12.95;;;;;;;20.42;37.46;96850.31;10286581;28;20043;-56
2022/04/03 13:16:16;;;;;;;23.02;10.23;;;;;;;20.43;37.46;96841.09;10288406;28;20055;-50
2022/04/03 13:21:37;;;;;;;23.75;9.68;;;;;;;20.45;37.67;96851.59;10286395;28;20134;-54
2022/04/03 13:26:58;;;;;;;20.70;8.35;;;;;;;20.47;37.32;96843.94;10276419;28;20063;-56
2022/04/03 13:32:21;;;;;;;18.75;8.10;;;;;;;20.48;36.97;96837.38;10287860;28;20043;-57
2022/04/03 13:37:41;;;;;;;11.63;4.72;;;;;;;20.44;32.68;96831.06;10285953;28;20563;-58
2022/04/03 13:43:01;;;;;;;2.47;1.90;;;;;;;19.95;23.48;96821.50;10273798;28;20046;-58
2022/04/03 13:48:24;;;;;;;4.50;1.60;;;;;;;19.53;20.20;96832.13;10280276;28;20108;-56
2022/04/03 13:53:44;;;;;;;1.73;1.45;;;;;;;19.30;20.29;96828.06;10282487;28;20421;-58
2022/04/03 13:59:03;;;;;;;1.85;1.50;;;;;;;19.17;22.30;96835.25;10283388;28;20128;-57
2022/04/03 14:04:24;;;;;;;4.78;1.88;;;;;;;19.46;24.87;96836.44;10317608;28;20093;-57
2022/04/03 14:09:43;;;;;;;6.07;1.80;;;;;;;19.64;26.67;96827.16;10288585;28;20061;-56
2022/04/03 14:15:04;;;;;;;4.55;2.00;;;;;;;19.78;26.92;96823.47;10303057;28;20689;-55
2022/04/03 14:20:24;;;;;;;6.38;2.50;;;;;;;19.85;27.77;96824.53;10287134;28;20122;-57
2022/04/03 14:25:43;;;;;;;8.57;2.60;;;;;;;19.90;28.46;96824.38;10285387;28;20074;-57
2022/04/03 14:31:04;;;;;;;7.45;2.80;;;;;;;19.94;29.01;96813.69;10273679;28;20506;-57
2022/04/03 14:36:23;;;;;;;6.38;2.72;;;;;;;19.97;29.45;96818.44;10298512;28;20097;-56
2022/04/03 14:41:44;;;;;;;5.10;2.10;;;;;;;20.02;29.96;96820.19;10288773;28;20059;-57
2022/04/03 14:47:06;;;;;;;6.45;2.00;;;;;;;20.06;30.61;96818.41;10298760;28;20054;-56
2022/04/03 14:52:26;;;;;;;4.63;2.40;;;;;;;20.09;30.93;96809.63;10284535;28;20105;-54
2022/04/03 14:57:45;;;;;;;6.88;2.10;;;;;;;20.11;31.45;96820.91;10302813;28;20039;-57
2022/04/03 15:03:05;;;;;;;5.90;2.15;;;;;;;20.15;31.90;96816.47;10266985;28;20516;-57
2022/04/03 15:08:24;;;;;;;4.45;2.00;;;;;;;20.18;32.13;96826.59;10303206;28;20105;-56
2022/04/03 15:13:44;;;;;;;3.65;2.00;;;;;;;20.22;32.57;96840.28;10289120;28;20050;-57
2022/04/03 15:19:04;;;;;;;5.38;2.60;;;;;;;20.23;33.08;96833.72;10302350;28;20039;-57
2022/04/03 15:24:24;;;;;;;4.75;2.20;;;;;;;20.24;33.60;96836.13;10287785;28;20043;-54
2022/04/03 15:29:52;;;;;;;4.60;2.10;;;;;;;20.24;33.92;96833.41;10289571;28;20073;-58
2022/04/03 15:35:12;;;;;;;2.90;1.95;;;;;;;20.25;31.16;96826.91;10299964;28;20121;-56
2022/04/03 15:40:32;;;;;;;4.78;2.03;;;;;;;20.24;33.59;96833.41;10282018;28;20051;-54
2022/04/03 15:45:52;;;;;;;4.07;1.90;;;;;;;20.25;34.04;96845.03;10295566;28;20042;-57
2022/04/03 15:51:12;;;;;;;2.85;1.50;;;;;;;20.25;34.19;96835.00;10299977;28;20049;-57
2022/04/03 15:56:31;;;;;;;5.00;1.85;;;;;;;20.26;34.63;96844.69;10288856;28;20442;-57
2022/04/03 16:01:54;;;;;;;4.35;2.00;;;;;;;20.27;35.15;96853.63;10293186;28;20051;-56
2022/04/03 16:07:13;;;;;;;3.90;2.28;;;;;;;20.28;35.58;96852.50;10280918;28;20125;-50
2022/04/03 16:12:33;;;;;;;5.53;2.25;;;;;;;20.26;35.96;96852.81;10295891;28;20050;-57
2022/04/03 16:17:53;;;;;;;5.40;1.58;;;;;;;20.27;35.20;96848.22;10284353;28;20054;-59
2022/04/03 16:23:13;;;;;;;2.47;1.45;;;;;;;20.27;36.04;96857.13;10289465;28;20043;-58
2022/04/03 16:28:32;;;;;;;4.20;2.05;;;;;;;20.27;36.30;96859.03;10293967;28;20055;-56
2022/04/03 16:33:54;;;;;;;3.88;1.70;;;;;;;20.28;36.53;96858.69;10289587;28;20126;-57
2022/04/03 16:39:15;;;;;;;4.75;1.65;;;;;;;20.28;36.68;96866.81;10293935;28;20043;-58
2022/04/03 16:44:35;;;;;;;4.32;1.30;;;;;;;20.26;36.80;96863.63;10293201;28;20061;-57
2022/04/03 16:49:57;;;;;;;4.32;1.50;;;;;;;20.27;37.04;96869.84;10294394;28;20417;-56
2022/04/03 16:55:16;;;;;;;3.10;1.63;;;;;;;20.26;37.35;96871.75;10307642;28;20043;-58
2022/04/03 17:00:36;;;;;;;3.08;1.52;;;;;;;20.26;37.50;96870.97;10289221;28;20051;-56
2022/04/03 17:05:56;;;;;;;4.35;1.90;;;;;;;20.25;37.70;96870.16;10290713;28;20051;-51
2022/04/03 17:11:16;;;;;;;2.10;1.40;;;;;;;20.24;38.18;96871.28;10288835;28;20129;-53
2022/04/03 17:16:36;;;;;;;2.00;1.17;;;;;;;20.24;38.29;96882.09;10289139;28;20546;-57
2022/04/03 17:21:55;;;;;;;3.63;1.40;;;;;;;20.25;38.22;96875.59;10289228;28;20058;-58
2022/04/03 17:27:15;;;;;;;1.63;1.13;;;;;;;20.25;38.11;96886.41;10275390;28;20055;-55
2022/04/03 17:32:35;;;;;;;1.80;1.30;;;;;;;20.25;38.18;96886.41;10286897;28;20062;-58
2022/04/03 17:37:55;;;;;;;5.00;1.30;;;;;;;20.23;38.08;96887.81;10284683;28;20430;-57
2022/04/03 17:43:15;;;;;;;2.35;1.20;;;;;;;20.22;38.02;96891.66;10286582;28;20685;-56
2022/04/03 17:48:35;;;;;;;2.03;1.38;;;;;;;20.21;38.18;96896.28;10292958;28;20043;-53
2022/04/03 17:53:56;;;;;;;2.78;1.23;;;;;;;20.21;38.32;96907.13;10300715;28;20050;-57
2022/04/03 17:59:15;;;;;;;3.85;1.50;;;;;;;20.21;38.42;96906.31;10285239;28;20078;-55
2022/04/03 18:04:36;;;;;;;2.15;1.40;;;;;;;20.20;38.56;96919.03;10290500;28;20544;-56
2022/04/03 18:09:56;;;;;;;4.18;1.38;;;;;;;20.17;38.57;96919.72;10299163;28;20035;-56
2022/04/03 18:15:15;;;;;;;2.70;1.70;;;;;;;20.15;38.65;96913.81;10300084;28;20096;-56
2022/04/03 18:20:36;;;;;;;4.75;1.30;;;;;;;20.15;38.58;96925.44;10283701;28;20054;-57
2022/04/03 18:25:56;;;;;;;2.20;1.27;;;;;;;20.15;38.88;96925.44;10296182;28;20126;-57
2022/04/03 18:31:17;;;;;;;5.40;1.60;;;;;;;20.14;38.89;96920.34;10288920;28;20051;-55
2022/04/03 18:36:36;;;;;;;3.28;1.40;;;;;;;20.13;39.10;96921.44;10283230;28;20073;-58
2022/04/03 18:41:57;;;;;;;5.38;1.38;;;;;;;20.10;39.62;96920.19;10282927;28;20081;-54
2022/04/03 18:47:17;;;;;;;4.70;1.30;;;;;;;20.08;39.70;96919.72;10297640;28;20046;-59
2022/04/03 18:52:38;;;;;;;3.83;1.55;;;;;;;20.09;39.67;96923.22;10283969;28;20055;-59
2022/04/03 18:57:58;;;;;;;3.30;1.58;;;;;;;20.07;39.99;96920.84;10293489;28;20039;-61
2022/04/03 19:03:17;;;;;;;4.97;1.50;;;;;;;20.05;40.02;96914.97;10288030;28;20051;-58
2022/04/03 19:08:37;;;;;;;5.30;1.50;;;;;;;20.04;40.15;96918.00;10286121;28;20561;-54
2022/04/03 19:13:56;;;;;;;5.30;1.48;;;;;;;20.02;40.47;96923.72;10286031;28;20054;-55
2022/04/03 19:19:16;;;;;;;2.55;1.42;;;;;;;20.02;40.25;96922.94;10298186;28;20049;-52
2022/04/03 19:24:36;;;;;;;3.30;1.40;;;;;;;20.01;40.34;96929.44;10279004;28;20051;-55
2022/04/03 19:29:56;;;;;;;3.80;1.40;;;;;;;20.01;40.15;96924.03;10288608;28;20128;-56
2022/04/03 19:35:17;;;;;;;5.65;1.55;;;;;;;19.99;40.16;96929.00;10284235;28;20051;-57
2022/04/03 19:40:40;;;;;;;3.95;1.63;;;;;;;19.99;40.27;96929.78;10282931;28;20668;-57
2022/04/03 19:46:00;;;;;;;4.30;1.20;;;;;;;19.98;40.33;96938.22;10286445;28;20138;-56
2022/04/03 19:51:19;;;;;;;3.25;1.20;;;;;;;19.95;40.12;96935.06;10276358;28;20647;-54
2022/04/03 19:56:39;;;;;;;2.88;1.30;;;;;;;19.94;40.29;96928.03;10278046;28;20039;-58
2022/04/03 20:01:59;;;;;;;5.93;1.50;;;;;;;19.94;40.37;96935.38;10285252;28;20051;-57
2022/04/03 20:07:20;;;;;;;5.28;1.50;;;;;;;19.92;40.25;96938.41;10300191;28;20070;-57
2022/04/03 20:12:40;;;;;;;2.72;1.40;;;;;;;19.90;40.40;96943.34;10287190;28;20058;-57
2022/04/03 20:18:00;;;;;;;3.47;1.20;;;;;;;19.89;40.29;96940.94;10289219;28;20046;-56
2022/04/03 20:23:19;;;;;;;3.22;1.50;;;;;;;19.87;40.36;96938.56;10298498;28;20050;-56
2022/04/03 20:28:39;;;;;;;3.70;1.40;;;;;;;19.86;40.30;96942.38;10285887;28;20418;-53
2022/04/03 20:33:59;;;;;;;2.47;1.27;;;;;;;19.84;40.45;96943.84;10271394;28;20122;-56
2022/04/03 20:39:18;;;;;;;4.18;1.60;;;;;;;19.84;40.53;96946.53;10254722;28;20539;-56
2022/04/03 20:44:38;;;;;;;4.05;1.38;;;;;;;19.82;40.31;96941.44;10257735;28;20054;-57
2022/04/03 20:49:57;;;;;;;1.95;1.08;;;;;;;19.81;40.55;96945.25;10271257;28;20035;-53
2022/04/03 20:55:19;;;;;;;2.63;1.23;;;;;;;19.79;40.50;96952.91;10255036;28;20409;-56
2022/04/03 21:00:39;;;;;;;2.80;1.25;;;;;;;19.78;40.50;96955.91;10269532;28;20130;-54
2022/04/03 21:05:58;;;;;;;3.92;1.15;;;;;;;19.77;40.31;96952.44;10282192;28;20059;-53
2022/04/03 21:11:18;;;;;;;3.15;1.38;;;;;;;19.77;40.24;96951.63;10288715;28;20101;-52
2022/04/03 21:16:37;;;;;;;2.60;1.30;;;;;;;19.74;40.19;96951.16;10292962;28;20065;-54
2022/04/03 21:21:57;;;;;;;3.08;1.27;;;;;;;19.73;40.08;96951.47;10286549;28;20049;-56
2022/04/03 21:27:16;;;;;;;3.72;1.50;;;;;;;19.70;40.01;96950.19;10288177;28;20459;-56
2022/04/03 21:32:36;;;;;;;2.78;1.20;;;;;;;19.70;40.06;96960.22;10289811;28;20051;-56
2022/04/03 21:37:57;;;;;;;2.20;1.13;;;;;;;19.69;40.05;96950.50;10292166;28;20055;-55
2022/04/03 21:43:17;;;;;;;2.70;1.30;;;;;;;19.68;40.00;96962.41;10296207;28;20050;-54
2022/04/03 21:48:37;;;;;;;2.55;1.38;;;;;;;19.66;39.83;96956.53;10284766;28;20055;-55
2022/04/03 21:53:57;;;;;;;2.13;1.20;;;;;;;19.63;39.85;96949.09;10300786;28;20050;-55
2022/04/03 21:59:17;;;;;;;2.55;1.30;;;;;;;19.62;39.71;96947.50;10301538;28;20299;-53
2022/04/03 22:04:37;;;;;;;1.98;1.40;;;;;;;19.62;39.80;96947.50;10297273;28;20405;-55
2022/04/03 22:09:57;;;;;;;2.83;1.27;;;;;;;19.61;39.69;96945.91;10288698;28;20076;-55
2022/04/03 22:15:17;;;;;;;3.40;1.30;;;;;;;19.59;39.76;96953.56;10289394;28;20383;-55
2022/04/03 22:20:36;;;;;;;2.22;1.20;;;;;;;19.58;39.56;96952.75;10298120;28;20129;-53
2022/04/03 22:25:56;;;;;;;1.63;1.30;;;;;;;19.56;39.55;96954.97;10280360;28;20498;-56
2022/04/03 22:31:16;;;;;;;2.00;1.23;;;;;;;19.54;39.65;96952.59;10290874;28;20089;-53
2022/04/03 22:36:36;;;;;;;2.45;1.17;;;;;;;19.53;39.60;96958.31;10288358;28;20155;-56
2022/04/03 22:41:55;;;;;;;2.00;1.13;;;;;;;19.51;39.40;96960.56;10297884;28;20039;-54
2022/04/03 22:47:14;;;;;;;2.05;1.30;;;;;;;19.50;39.31;96954.38;10287788;28;20054;-56
2022/04/03 22:52:35;;;;;;;1.67;1.10;;;;;;;19.47;39.38;96952.28;10285627;28;20082;-55
2022/04/03 22:57:54;;;;;;;2.13;1.17;;;;;;;19.46;39.24;96945.28;10278401;28;20470;-53
2022/04/03 23:03:14;;;;;;;2.63;1.10;;;;;;;19.45;39.27;96943.72;10274639;28;20050;-53
2022/04/03 23:08:33;;;;;;;3.00;1.33;;;;;;;19.43;39.26;96937.84;10281289;28;20410;-54
2022/04/03 23:13:55;;;;;;;1.38;1.17;;;;;;;19.42;39.29;96943.56;10300251;28;20109;-55
2022/04/03 23:19:15;;;;;;;1.60;1.13;;;;;;;19.40;39.29;96938.47;10285526;28;20058;-53
2022/04/03 23:24:34;;;;;;;3.58;1.00;;;;;;;19.39;39.14;96936.88;10287458;28;20058;-56
2022/04/03 23:29:53;;;;;;;1.80;1.17;;;;;;;19.38;39.12;96935.28;10289829;28;20392;-54
2022/04/03 23:35:13;;;;;;;1.98;1.27;;;;;;;19.36;38.93;96934.81;10287259;28;20105;-56
2022/04/03 23:40:32;;;;;;;1.75;1.00;;;;;;;19.35;38.99;96934.03;10288530;28;20517;-54
2022/04/03 23:45:52;;;;;;;2.35;1.20;;;;;;;19.33;39.08;96930.84;10296343;28;20493;-55
2022/04/03 23:51:12;;;;;;;2.33;1.20;;;;;;;19.32;39.08;96925.75;10282062;28;20130;-55
2022/04/03 23:56:32;;;;;;;2.17;1.38;;;;;;;19.31;38.83;96932.28;10281476;28;20059;-55
